Time;durP1;ratioP1;P1;durP2;ratioP2;P2;SDS_P1;SDS_P2;PMS_P1;PMS_P2;Temp;Humidity;BMP_temperature;BMP_pressure;BME280_temperature;BME280_humidity;BME280_pressure;Samples;Min_cycle;Max_cycle;Signal;HPM_P1;HPM_P2
2022/12/04 00:01:26;;;;;;;30.95;13.93;;;3.90;76.50;;;;;;4998001;28;20046;-61
2022/12/04 00:03:58;;;;;;;29.27;15.00;;;4.00;76.60;;;;;;4988303;28;20068;-61
2022/12/04 00:06:24;;;;;;;27.33;14.00;;;4.00;76.60;;;;;;5000857;28;20873;-61
2022/12/04 00:08:50;;;;;;;30.38;14.70;;;4.00;76.60;;;;;;4993456;28;20110;-61
2022/12/04 00:11:21;;;;;;;27.52;13.95;;;4.00;77.30;;;;;;5032816;28;20071;-61
2022/12/04 00:13:47;;;;;;;29.85;14.60;;;4.10;76.70;;;;;;5043756;28;20077;-60
2022/12/04 00:16:19;;;;;;;26.25;13.27;;;4.10;77.30;;;;;;5041957;28;20037;-61
2022/12/04 00:18:45;;;;;;;28.58;14.18;;;4.10;76.50;;;;;;5034494;28;20043;-61
2022/12/04 00:21:13;;;;;;;23.65;12.30;;;4.10;76.50;;;;;;5040012;28;20044;-61
2022/12/04 00:23:40;;;;;;;32.40;14.70;;;4.10;76.30;;;;;;5035661;28;20096;-61
2022/12/04 00:26:20;;;;;;;30.63;14.43;;;4.10;76.30;;;;;;5045659;28;20109;-61
2022/12/04 00:28:46;;;;;;;28.58;13.77;;;4.10;76.30;;;;;;5032067;28;20025;-61
2022/12/04 00:31:15;;;;;;;28.55;13.90;;;4.10;76.30;;;;;;5046752;28;20032;-61
2022/12/04 00:33:42;;;;;;;31.67;13.98;;;4.10;76.30;;;;;;5045709;28;20030;-61
2022/12/04 00:36:10;;;;;;;28.05;14.07;;;4.10;76.30;;;;;;5044966;28;20067;-63
2022/12/04 00:38:37;;;;;;;29.20;13.68;;;4.10;76.20;;;;;;5041247;28;20033;-62
2022/12/04 00:41:03;;;;;;;27.27;12.60;;;4.10;76.20;;;;;;5046276;28;20052;-62
2022/12/04 00:43:30;;;;;;;29.15;13.32;;;4.10;76.30;;;;;;5042455;28;20037;-62
2022/12/04 00:45:56;;;;;;;26.95;13.75;;;4.10;76.40;;;;;;5046565;28;20049;-63
2022/12/04 00:48:22;;;;;;;30.42;13.77;;;4.10;76.40;;;;;;5040664;28;20091;-62
2022/12/04 00:50:48;;;;;;;27.38;14.10;;;4.10;76.50;;;;;;5040568;28;20033;-62
2022/12/04 00:53:15;;;;;;;30.90;14.30;;;4.20;76.40;;;;;;5042611;28;20060;-62
2022/12/04 00:55:42;;;;;;;31.15;14.32;;;4.20;76.60;;;;;;5046178;28;20032;-62
2022/12/04 00:58:08;;;;;;;29.35;14.55;;;4.20;76.60;;;;;;5047575;28;20124;-62
2022/12/04 01:00:40;;;;;;;29.63;13.75;;;4.20;76.60;;;;;;5044310;28;20039;-62
2022/12/04 01:03:07;;;;;;;26.95;13.98;;;4.20;76.40;;;;;;5039792;28;20022;-63
2022/12/04 01:05:40;;;;;;;26.52;13.10;;;4.20;76.30;;;;;;5048794;28;20056;-62
2022/12/04 01:08:06;;;;;;;29.13;14.45;;;4.20;76.40;;;;;;5043694;28;20022;-62
2022/12/04 01:10:32;;;;;;;30.05;13.85;;;4.20;76.30;;;;;;5045899;28;20049;-62
2022/12/04 01:12:58;;;;;;;26.23;13.18;;;4.20;76.20;;;;;;5048220;28;20021;-62
2022/12/04 01:15:24;;;;;;;26.58;13.23;;;4.20;76.90;;;;;;5045501;28;20040;-63
2022/12/04 01:17:49;;;;;;;24.83;12.20;;;4.10;76.20;;;;;;5034461;28;20049;-62
2022/12/04 01:20:16;;;;;;;26.75;13.10;;;4.20;76.30;;;;;;5043610;28;20089;-62
2022/12/04 01:22:42;;;;;;;27.13;12.80;;;4.10;76.30;;;;;;5047423;28;20033;-62
2022/12/04 01:25:08;;;;;;;27.63;12.52;;;4.10;76.30;;;;;;5049030;28;20065;-62
2022/12/04 01:27:34;;;;;;;25.00;12.82;;;4.20;76.50;;;;;;5035601;28;20634;-62
2022/12/04 01:29:59;;;;;;;26.13;12.98;;;4.10;76.50;;;;;;5040646;28;20025;-62
2022/12/04 01:32:25;;;;;;;25.17;13.05;;;4.10;76.70;;;;;;5043232;28;20030;-62
2022/12/04 01:34:50;;;;;;;29.52;14.48;;;4.20;76.70;;;;;;5042413;28;20029;-62
2022/12/04 01:37:16;;;;;;;28.13;13.48;;;4.20;76.70;;;;;;5045289;28;20031;-63
2022/12/04 01:39:42;;;;;;;25.35;12.73;;;4.20;76.60;;;;;;5045461;28;20022;-62
2022/12/04 01:42:13;;;;;;;28.95;13.80;;;4.20;76.60;;;;;;5050163;28;20079;-61
2022/12/04 01:44:42;;;;;;;28.40;13.20;;;4.10;76.60;;;;;;5041416;28;20046;-61
2022/12/04 01:47:09;;;;;;;31.27;14.82;;;4.10;76.60;;;;;;5032256;28;20034;-61
2022/12/04 01:49:44;;;;;;;31.23;13.43;;;4.10;76.70;;;;;;5032637;28;20487;-61
2022/12/04 01:52:20;;;;;;;25.40;13.13;;;4.10;76.90;;;;;;5046236;28;20045;-61
2022/12/04 01:54:49;;;;;;;29.73;13.50;;;4.10;76.80;;;;;;5042170;28;20025;-61
2022/12/04 01:57:21;;;;;;;25.17;13.07;;;4.10;77.50;;;;;;5041764;28;20025;-61
2022/12/04 01:59:52;;;;;;;30.60;14.05;;;4.10;76.90;;;;;;5056480;28;20031;-61
2022/12/04 02:02:47;;;;;;;28.25;13.05;;;4.10;76.90;;;;;;5045359;28;20085;-60
2022/12/04 02:05:16;;;;;;;27.30;13.57;;;4.20;77.20;;;;;;5047717;28;20049;-62
2022/12/04 02:07:45;;;;;;;34.70;15.27;;;4.10;76.80;;;;;;5036830;28;20040;-61
2022/12/04 02:10:11;;;;;;;27.77;12.57;;;4.20;77.10;;;;;;5037382;28;20053;-60
2022/12/04 02:12:52;;;;;;;25.83;12.73;;;4.10;76.80;;;;;;5040465;28;20030;-61
2022/12/04 02:15:42;;;;;;;28.73;14.77;;;4.10;77.00;;;;;;5048494;28;20063;-61
2022/12/04 02:18:34;;;;;;;27.10;12.75;;;4.10;77.10;;;;;;5037481;28;20034;-61
2022/12/04 02:21:32;;;;;;;29.45;13.70;;;4.10;77.10;;;;;;5040251;28;20028;-60
2022/12/04 02:24:19;;;;;;;26.05;12.77;;;4.10;77.20;;;;;;5042634;28;20030;-61
2022/12/04 02:26:59;;;;;;;26.60;13.35;;;4.10;77.10;;;;;;5041101;28;20037;-60
2022/12/04 02:29:53;;;;;;;26.38;12.98;;;4.20;77.20;;;;;;5040434;28;20426;-62
2022/12/04 02:32:34;;;;;;;28.15;13.45;;;4.20;77.30;;;;;;5026180;28;20029;-61
2022/12/04 02:35:14;;;;;;;26.45;13.05;;;4.20;77.30;;;;;;5039120;28;20038;-61
2022/12/04 02:37:51;;;;;;;27.23;13.15;;;4.20;77.20;;;;;;5043767;28;20443;-61
2022/12/04 02:40:46;;;;;;;25.70;13.45;;;4.20;77.30;;;;;;5044578;28;20029;-62
2022/12/04 02:43:17;;;;;;;29.35;13.40;;;4.20;77.20;;;;;;5029588;28;20041;-63
2022/12/04 02:45:55;;;;;;;28.55;13.05;;;4.20;77.20;;;;;;5042360;28;20037;-62
2022/12/04 02:48:22;;;;;;;24.52;11.55;;;4.20;77.20;;;;;;5042497;28;20021;-61
2022/12/04 02:50:52;;;;;;;24.48;13.13;;;4.30;77.30;;;;;;5041666;28;20029;-61
2022/12/04 02:53:39;;;;;;;30.98;15.20;;;4.30;77.50;;;;;;5038286;28;20042;-62
2022/12/04 02:56:09;;;;;;;29.02;13.88;;;4.30;77.70;;;;;;5040123;28;20092;-61
2022/12/04 02:58:48;;;;;;;29.88;13.80;;;4.30;77.30;;;;;;5025161;28;20025;-61
2022/12/04 03:01:19;;;;;;;24.77;12.65;;;4.30;77.40;;;;;;5045576;28;20415;-61
2022/12/04 03:04:15;;;;;;;24.42;12.75;;;4.30;77.30;;;;;;5046484;28;20101;-61
2022/12/04 03:06:44;;;;;;;30.92;12.93;;;4.40;77.50;;;;;;5039392;28;20034;-61
2022/12/04 03:09:19;;;;;;;25.85;12.88;;;4.40;77.30;;;;;;5021643;28;20039;-60
2022/12/04 03:11:59;;;;;;;28.20;13.38;;;4.40;77.40;;;;;;5050449;28;20032;-60
2022/12/04 03:14:31;;;;;;;32.95;13.68;;;4.40;77.40;;;;;;5037719;28;20049;-60
2022/12/04 03:17:05;;;;;;;27.73;13.60;;;4.40;77.30;;;;;;5041438;28;20048;-60
2022/12/04 03:19:40;;;;;;;30.70;12.35;;;4.40;77.20;;;;;;4980906;28;20017;-62
2022/12/04 03:22:11;;;;;;;28.17;12.38;;;4.50;77.20;;;;;;5042424;28;20031;-61
2022/12/04 03:24:48;;;;;;;26.63;12.45;;;4.40;77.10;;;;;;5044707;28;20042;-62
2022/12/04 03:27:36;;;;;;;28.42;13.68;;;4.40;77.20;;;;;;5036157;28;20029;-61
2022/12/04 03:30:10;;;;;;;25.98;12.82;;;4.40;77.40;;;;;;5045160;28;20041;-63
2022/12/04 03:32:47;;;;;;;24.25;12.60;;;4.40;77.20;;;;;;5042268;28;20021;-62
2022/12/04 03:35:36;;;;;;;24.48;12.20;;;4.40;77.10;;;;;;5046444;28;20041;-62
2022/12/04 03:38:10;;;;;;;22.40;11.60;;;4.40;77.10;;;;;;5016441;28;20041;-63
2022/12/04 03:41:02;;;;;;;27.73;11.93;;;4.30;77.10;;;;;;5045026;28;20096;-63
2022/12/04 03:43:57;;;;;;;23.67;11.32;;;4.40;77.30;;;;;;5048996;28;20531;-62
2022/12/04 03:46:26;;;;;;;;;;;4.40;77.30;;;;;;5048184;28;20025;-62
2022/12/04 03:49:00;;;;;;;22.75;11.30;;;4.40;77.70;;;;;;5042126;28;20406;-62
2022/12/04 03:51:37;;;;;;;29.65;12.57;;;4.40;77.20;;;;;;5041984;28;20032;-62
2022/12/04 03:54:10;;;;;;;30.05;14.25;;;4.40;77.20;;;;;;5041093;28;20091;-62
2022/12/04 03:56:46;;;;;;;28.33;12.88;;;4.40;77.40;;;;;;5044350;28;20019;-63
2022/12/04 03:59:23;;;;;;;26.52;13.18;;;4.40;77.40;;;;;;5045779;28;20029;-62
2022/12/04 04:01:50;;;;;;;25.67;12.77;;;4.40;77.40;;;;;;5044752;28;20456;-62
2022/12/04 04:04:29;;;;;;;23.05;12.30;;;4.40;77.40;;;;;;5043398;28;20040;-63
2022/12/04 04:07:01;;;;;;;30.63;13.85;;;4.50;77.50;;;;;;5040346;28;20084;-62
2022/12/04 04:09:34;;;;;;;24.67;12.45;;;4.50;77.30;;;;;;5035209;28;20030;-62
2022/12/04 04:12:18;;;;;;;29.52;13.43;;;4.50;77.30;;;;;;5020825;28;20037;-62
2022/12/04 04:26:07;;;;;;;27.33;13.07;;;4.50;77.10;;;;;;5042938;28;20075;-62
2022/12/04 04:28:33;;;;;;;27.73;13.25;;;4.50;77.10;;;;;;5040605;28;20073;-61
2022/12/04 04:31:36;;;;;;;26.02;13.10;;;4.50;77.20;;;;;;5047214;28;20034;-61
2022/12/04 04:34:23;;;;;;;31.75;13.07;;;4.50;77.40;;;;;;5040846;28;20072;-62
2022/12/04 04:37:10;;;;;;;26.20;12.93;;;4.50;77.30;;;;;;5043259;28;20025;-61
2022/12/04 04:39:38;;;;;;;24.58;12.40;;;4.50;77.40;;;;;;5039266;28;20022;-61
2022/12/04 04:42:16;;;;;;;24.92;12.20;;;4.40;77.30;;;;;;5030813;28;20034;-62
2022/12/04 04:45:00;;;;;;;25.45;12.68;;;4.50;77.40;;;;;;5041958;28;20037;-62
2022/12/04 04:47:35;;;;;;;17.27;8.73;;;4.50;77.40;;;;;;5038578;28;20029;-62
2022/12/04 04:50:06;;;;;;;24.65;11.23;;;4.50;77.30;;;;;;5048955;28;20280;-63
2022/12/04 04:52:33;;;;;;;27.48;12.55;;;4.50;77.20;;;;;;5044960;28;20028;-62
2022/12/04 04:55:00;;;;;;;26.40;13.43;;;4.50;77.90;;;;;;5050921;28;20025;-63
2022/12/04 04:57:32;;;;;;;24.42;12.32;;;4.50;77.40;;;;;;5040052;28;20025;-62
2022/12/04 04:59:58;;;;;;;24.35;12.68;;;4.50;77.40;;;;;;5048960;28;20048;-62
2022/12/04 05:02:25;;;;;;;25.38;13.15;;;4.50;77.40;;;;;;5047585;28;20637;-62
2022/12/04 05:04:51;;;;;;;26.15;13.05;;;4.50;77.50;;;;;;5046884;28;20037;-62
2022/12/04 05:07:17;;;;;;;25.70;10.93;;;4.60;77.50;;;;;;5043582;28;20025;-61
2022/12/04 05:09:42;;;;;;;24.83;12.57;;;4.60;77.40;;;;;;5043834;28;20049;-60
2022/12/04 05:12:09;;;;;;;24.83;12.77;;;4.60;77.40;;;;;;5041373;28;20040;-61
2022/12/04 05:14:34;;;;;;;30.05;13.63;;;4.60;77.40;;;;;;5049337;28;20025;-63
2022/12/04 05:17:00;;;;;;;28.48;12.70;;;4.70;77.40;;;;;;5042317;28;20168;-62
2022/12/04 05:22:30;;;;;;;25.65;12.23;;;4.70;77.20;;;;;;4992182;28;20046;-60
2022/12/04 05:24:57;;;;;;;27.17;12.60;;;4.70;77.10;;;;;;5047121;28;20033;-61
2022/12/04 05:27:23;;;;;;;25.55;12.13;;;4.70;77.00;;;;;;5044209;28;20017;-60
2022/12/04 05:29:54;;;;;;;24.50;12.75;;;4.70;77.10;;;;;;5037335;28;20030;-61
2022/12/04 05:32:21;;;;;;;27.95;13.73;;;4.70;77.10;;;;;;5045479;28;20021;-61
2022/12/04 05:34:48;;;;;;;26.63;13.77;;;4.70;77.10;;;;;;5046618;28;20028;-62
2022/12/04 05:37:14;;;;;;;26.42;13.75;;;4.70;77.10;;;;;;5049853;28;20025;-61
2022/12/04 05:39:39;;;;;;;27.55;14.15;;;4.80;77.20;;;;;;5044137;28;20073;-60
2022/12/04 05:42:05;;;;;;;30.23;13.95;;;4.70;77.10;;;;;;5044033;28;20029;-61
2022/12/04 05:44:31;;;;;;;25.55;13.52;;;4.70;77.10;;;;;;5035916;28;20037;-62
2022/12/04 05:46:56;;;;;;;25.70;13.30;;;4.80;77.10;;;;;;5048948;28;20026;-62
2022/12/04 05:49:22;;;;;;;27.88;13.82;;;4.80;77.10;;;;;;5045476;28;20071;-63
2022/12/04 05:51:49;;;;;;;32.13;14.38;;;4.80;77.00;;;;;;5043422;28;20033;-63
2022/12/04 05:54:16;;;;;;;25.58;13.20;;;4.80;77.00;;;;;;5045599;28;20033;-64
2022/12/04 05:56:41;;;;;;;29.50;13.93;;;4.80;77.00;;;;;;5048501;28;20417;-61
2022/12/04 05:59:07;;;;;;;25.85;13.25;;;4.80;77.00;;;;;;5046795;28;20034;-62
2022/12/04 06:01:32;;;;;;;31.25;13.50;;;4.80;77.00;;;;;;5047389;28;20104;-62
2022/12/04 06:03:58;;;;;;;25.08;13.15;;;4.80;77.00;;;;;;5045881;28;20041;-62
2022/12/04 06:06:25;;;;;;;28.63;13.57;;;4.80;77.10;;;;;;5048423;28;20057;-61
2022/12/04 06:08:53;;;;;;;28.40;15.57;;;4.80;77.10;;;;;;5040929;28;20033;-61
2022/12/04 06:11:22;;;;;;;22.27;12.13;;;4.80;76.90;;;;;;5045764;28;20049;-61
2022/12/04 06:13:48;;;;;;;25.55;12.75;;;4.80;76.70;;;;;;5040528;28;20073;-60
2022/12/04 06:16:26;;;;;;;25.98;12.60;;;4.80;76.90;;;;;;5040678;28;20029;-63
2022/12/04 06:18:58;;;;;;;28.42;13.10;;;4.80;77.00;;;;;;5036998;28;20029;-61
2022/12/04 06:21:27;;;;;;;32.92;14.10;;;4.80;76.90;;;;;;5047771;28;20049;-62
2022/12/04 06:23:53;;;;;;;25.02;13.20;;;4.80;76.90;;;;;;5045901;28;20492;-63
2022/12/04 06:26:20;;;;;;;27.73;13.88;;;4.80;76.90;;;;;;5048010;28;20025;-61
2022/12/04 06:28:46;;;;;;;29.08;14.40;;;4.80;77.00;;;;;;5033139;28;20033;-62
2022/12/04 06:31:14;;;;;;;34.88;15.77;;;4.90;76.90;;;;;;5022879;28;20025;-62
2022/12/04 06:33:40;;;;;;;28.80;14.90;;;4.90;76.80;;;;;;5036591;28;20040;-62
2022/12/04 06:36:09;;;;;;;28.63;14.75;;;4.90;76.60;;;;;;5043667;28;20456;-63
2022/12/04 06:38:35;;;;;;;24.02;13.80;;;4.80;76.50;;;;;;5046975;28;20034;-63
2022/12/04 06:41:09;;;;;;;28.80;13.75;;;4.80;76.50;;;;;;5040949;28;20021;-61
2022/12/04 06:43:35;;;;;;;27.00;14.45;;;4.80;76.60;;;;;;5047190;28;20028;-62
2022/12/04 06:46:06;;;;;;;28.40;14.60;;;4.80;76.60;;;;;;5034600;28;20208;-61
2022/12/04 06:48:32;;;;;;;25.15;13.35;;;4.70;76.60;;;;;;5039970;28;20029;-61
2022/12/04 06:51:04;;;;;;;25.10;12.93;;;4.70;76.60;;;;;;5040635;28;20033;-62
2022/12/04 06:53:31;;;;;;;24.35;12.55;;;4.70;76.90;;;;;;5050151;28;20032;-63
2022/12/04 06:56:02;;;;;;;30.23;13.52;;;4.70;76.90;;;;;;5047019;28;20045;-62
2022/12/04 06:58:28;;;;;;;23.45;12.60;;;4.70;77.70;;;;;;5042413;28;20081;-63
2022/12/04 07:00:55;;;;;;;22.45;11.85;;;4.70;76.80;;;;;;5048045;28;20040;-61
2022/12/04 07:03:21;;;;;;;21.60;12.20;;;4.70;76.90;;;;;;5042464;28;20029;-62
2022/12/04 07:05:47;;;;;;;24.58;12.65;;;4.70;77.00;;;;;;5042917;28;20029;-62
2022/12/04 07:08:13;;;;;;;22.58;12.32;;;4.70;77.10;;;;;;5027704;28;20057;-62
2022/12/04 07:10:39;;;;;;;20.75;11.32;;;4.70;76.90;;;;;;5042565;28;20046;-62
2022/12/04 07:13:05;;;;;;;23.15;12.23;;;4.70;76.90;;;;;;5014224;28;20042;-61
2022/12/04 07:15:33;;;;;;;24.45;12.82;;;4.70;76.90;;;;;;5044553;28;20021;-62
2022/12/04 07:17:58;;;;;;;22.65;12.18;;;4.70;76.90;;;;;;5039607;28;20018;-61
2022/12/04 07:20:24;;;;;;;21.52;11.10;;;4.80;76.90;;;;;;5040765;28;20763;-61
2022/12/04 07:22:50;;;;;;;22.52;11.60;;;4.80;76.80;;;;;;5041433;28;20025;-62
2022/12/04 07:25:16;;;;;;;23.67;11.57;;;4.80;76.60;;;;;;5037288;28;20045;-62
2022/12/04 07:27:42;;;;;;;20.98;11.63;;;4.80;76.50;;;;;;5047899;28;20022;-61
2022/12/04 07:30:09;;;;;;;24.02;12.32;;;4.80;76.60;;;;;;5044463;28;20037;-61
2022/12/04 07:32:35;;;;;;;21.60;12.23;;;4.80;76.80;;;;;;5045933;28;20033;-63
2022/12/04 07:35:01;;;;;;;22.05;11.30;;;4.90;76.80;;;;;;5043420;28;20025;-63
2022/12/04 07:37:27;;;;;;;25.17;12.68;;;4.90;76.70;;;;;;5032345;28;20527;-62
2022/12/04 07:39:52;;;;;;;21.85;11.80;;;4.90;76.50;;;;;;5038996;28;20036;-62
2022/12/04 07:42:19;;;;;;;25.83;13.35;;;4.90;76.50;;;;;;5023586;28;20034;-62
2022/12/04 07:44:45;;;;;;;24.45;12.65;;;4.90;76.50;;;;;;5047265;28;20064;-63
2022/12/04 07:47:11;;;;;;;22.80;12.60;;;4.90;76.70;;;;;;5022005;28;20022;-63
2022/12/04 07:49:37;;;;;;;23.38;11.75;;;4.90;76.50;;;;;;5038362;28;20029;-63
2022/12/04 07:52:03;;;;;;;23.98;12.90;;;4.90;76.50;;;;;;5042832;28;20021;-64
2022/12/04 07:54:29;;;;;;;22.83;12.45;;;4.90;76.50;;;;;;5041068;28;20040;-63
2022/12/04 07:56:54;;;;;;;21.73;11.82;;;4.90;76.60;;;;;;5045541;28;20035;-61
2022/12/04 07:59:20;;;;;;;23.05;11.52;;;4.90;76.50;;;;;;5035166;28;20530;-62
2022/12/04 08:01:46;;;;;;;24.27;12.68;;;5.00;76.50;;;;;;5044668;28;20025;-62
2022/12/04 08:04:11;;;;;;;22.80;12.55;;;5.00;76.50;;;;;;5040968;28;20512;-62
2022/12/04 08:06:38;;;;;;;25.95;13.27;;;5.00;76.20;;;;;;5026307;28;20048;-61
2022/12/04 08:09:05;;;;;;;26.30;13.18;;;5.00;76.10;;;;;;5040589;28;20101;-62
2022/12/04 08:11:31;;;;;;;21.20;12.43;;;4.90;76.10;;;;;;5040338;28;20126;-61
2022/12/04 08:14:02;;;;;;;22.70;12.73;;;4.90;76.20;;;;;;5043342;28;20025;-61
2022/12/04 08:16:30;;;;;;;25.52;13.02;;;4.90;76.40;;;;;;5042991;28;20081;-61
2022/12/04 08:18:56;;;;;;;23.63;12.68;;;5.00;76.70;;;;;;5035651;28;20021;-61
2022/12/04 08:21:23;;;;;;;27.52;13.55;;;5.00;76.70;;;;;;5042181;28;20032;-61
2022/12/04 08:23:51;;;;;;;26.52;12.57;;;5.00;76.70;;;;;;5036510;28;20030;-61
2022/12/04 08:26:18;;;;;;;21.25;12.13;;;5.00;76.50;;;;;;5045855;28;20040;-62
2022/12/04 08:28:43;;;;;;;21.83;11.80;;;5.00;76.40;;;;;;5040582;28;20055;-62
2022/12/04 08:31:16;;;;;;;25.95;11.60;;;5.10;76.50;;;;;;5035213;28;20033;-62
2022/12/04 08:33:43;;;;;;;22.85;12.27;;;5.10;76.50;;;;;;5040873;28;20060;-63
2022/12/04 08:36:12;;;;;;;22.65;12.55;;;5.10;76.50;;;;;;5039054;28;20052;-63
2022/12/04 08:38:38;;;;;;;23.17;12.00;;;5.10;76.50;;;;;;5043181;28;20033;-62
2022/12/04 08:41:05;;;;;;;25.58;12.50;;;5.10;76.40;;;;;;5044462;28;20029;-62
2022/12/04 08:43:31;;;;;;;38.22;18.92;;;5.10;76.10;;;;;;5043666;28;20022;-63
2022/12/04 08:45:58;;;;;;;26.02;13.45;;;5.10;76.20;;;;;;5037382;28;20098;-63
2022/12/04 08:48:24;;;;;;;24.02;12.70;;;5.10;76.30;;;;;;5043415;28;20052;-63
2022/12/04 08:50:49;;;;;;;158.55;71.65;;;5.10;76.30;;;;;;5022617;28;20030;-64
2022/12/04 08:53:15;;;;;;;50.65;28.08;;;5.20;76.40;;;;;;5041375;28;20026;-64
2022/12/04 08:55:41;;;;;;;38.55;19.73;;;5.20;76.40;;;;;;5043672;28;20033;-63
2022/12/04 08:58:07;;;;;;;28.13;15.32;;;5.20;76.50;;;;;;5012362;28;20823;-65
2022/12/04 09:00:32;;;;;;;29.48;15.25;;;5.20;76.60;;;;;;5041918;28;20029;-62
2022/12/04 09:02:58;;;;;;;39.30;21.70;;;5.20;76.30;;;;;;5037752;28;20078;-62
2022/12/04 09:05:24;;;;;;;30.05;16.98;;;5.20;76.20;;;;;;5039798;28;20038;-62
2022/12/04 09:07:50;;;;;;;167.90;57.97;;;5.30;76.30;;;;;;5037393;28;20456;-62
2022/12/04 09:10:15;;;;;;;408.58;139.82;;;5.30;76.20;;;;;;5033005;28;20060;-62
2022/12/04 09:12:41;;;;;;;132.13;53.92;;;5.30;76.30;;;;;;5018923;28;20044;-63
2022/12/04 09:15:07;;;;;;;55.42;25.40;;;5.30;76.20;;;;;;5042112;28;20021;-62
2022/12/04 09:17:35;;;;;;;42.50;20.50;;;5.30;76.20;;;;;;5036018;28;20025;-62
2022/12/04 09:20:02;;;;;;;29.08;15.50;;;5.30;76.00;;;;;;5042448;28;20640;-63
2022/12/04 09:22:27;;;;;;;29.92;13.57;;;5.30;76.00;;;;;;5033363;28;20030;-63
2022/12/04 09:24:53;;;;;;;28.08;14.52;;;5.30;75.90;;;;;;5042780;28;20041;-62
2022/12/04 09:27:19;;;;;;;28.83;15.25;;;5.30;75.90;;;;;;5038307;28;20040;-63
2022/12/04 09:29:44;;;;;;;25.75;13.85;;;5.30;76.10;;;;;;5038102;28;20049;-63
2022/12/04 09:32:10;;;;;;;25.45;14.10;;;5.30;76.30;;;;;;5043709;28;20056;-63
2022/12/04 09:34:35;;;;;;;24.17;13.88;;;5.40;76.50;;;;;;5045595;28;21006;-62
2022/12/04 09:37:01;;;;;;;29.98;15.93;;;5.40;76.50;;;;;;5038892;28;20372;-61
2022/12/04 09:39:28;;;;;;;26.25;13.48;;;5.40;76.40;;;;;;5049563;28;20067;-62
2022/12/04 09:42:28;;;;;;;25.08;13.95;;;5.40;76.40;;;;;;5019253;28;20857;-62
2022/12/04 09:45:15;;;;;;;21.13;11.73;;;5.40;76.40;;;;;;5025067;28;20064;-62
2022/12/04 09:48:00;;;;;;;25.83;13.27;;;5.40;76.10;;;;;;5045197;28;20033;-61
2022/12/04 09:50:35;;;;;;;23.02;13.20;;;5.50;76.00;;;;;;5048255;28;20025;-62
2022/12/04 09:53:09;;;;;;;25.50;13.70;;;5.40;76.00;;;;;;5042485;28;20105;-64
2022/12/04 09:55:53;;;;;;;21.30;12.00;;;5.50;76.30;;;;;;5031082;28;20053;-62
2022/12/04 09:58:54;;;;;;;22.53;11.60;;;5.50;76.30;;;;;;5047002;28;20037;-62
2022/12/04 10:01:25;;;;;;;21.65;11.60;;;5.40;76.20;;;;;;5018717;28;20026;-64
2022/12/04 10:03:52;;;;;;;24.63;11.88;;;5.50;76.20;;;;;;5043602;28;20030;-62
2022/12/04 10:06:37;;;;;;;21.23;11.73;;;5.40;76.20;;;;;;5018125;28;20087;-62
2022/12/04 10:09:26;;;;;;;;;;;5.50;76.40;;;;;;5045169;28;20031;-62
2022/12/04 10:12:24;;;;;;;20.08;10.30;;;5.50;76.50;;;;;;5042380;28;19980;-61
2022/12/04 10:15:11;;;;;;;21.30;10.73;;;5.50;76.20;;;;;;4996847;28;20460;-63
2022/12/04 10:17:51;;;;;;;31.23;16.38;;;5.60;76.20;;;;;;5031273;28;20030;-64
2022/12/04 10:20:38;;;;;;;26.58;14.55;;;5.60;76.10;;;;;;5043116;28;20186;-63
2022/12/04 10:23:25;;;;;;;29.40;15.10;;;5.60;76.00;;;;;;5044701;28;20021;-63
2022/12/04 10:25:54;;;;;;;22.33;12.25;;;5.60;76.10;;;;;;5044838;28;20093;-63
2022/12/04 10:28:29;;;;;;;27.95;17.10;;;5.60;75.90;;;;;;5044933;28;20037;-63
2022/12/04 10:30:59;;;;;;;31.08;18.52;;;5.60;75.90;;;;;;5039326;28;20026;-62
2022/12/04 10:33:35;;;;;;;20.75;11.80;;;5.60;76.10;;;;;;5037902;28;20034;-62
2022/12/04 10:36:02;;;;;;;20.60;11.73;;;5.60;76.20;;;;;;5043713;28;20077;-62
2022/12/04 10:38:39;;;;;;;20.83;11.05;;;5.60;76.10;;;;;;5035499;28;20021;-63
2022/12/04 10:41:20;;;;;;;21.02;11.50;;;5.70;76.30;;;;;;5040263;28;20052;-63
2022/12/04 10:43:48;;;;;;;23.80;11.25;;;5.70;76.20;;;;;;5030096;28;20344;-62
2022/12/04 10:46:26;;;;;;;18.15;10.25;;;5.70;76.10;;;;;;5035036;28;20036;-62
2022/12/04 10:49:18;;;;;;;17.40;10.68;;;5.70;76.60;;;;;;5045295;28;20595;-63
2022/12/04 10:51:45;;;;;;;17.15;10.35;;;5.80;75.80;;;;;;5040130;28;20470;-63
2022/12/04 10:54:35;;;;;;;36.97;23.15;;;5.80;75.90;;;;;;5019364;28;20034;-62
2022/12/04 10:57:04;;;;;;;37.20;18.70;;;5.80;76.00;;;;;;5040588;28;20070;-63
2022/12/04 10:59:31;;;;;;;19.60;10.27;;;5.80;76.10;;;;;;5038638;28;20100;-62
2022/12/04 11:02:21;;;;;;;31.88;17.70;;;5.80;76.10;;;;;;5047869;28;20029;-62
2022/12/04 11:05:03;;;;;;;24.63;14.75;;;5.90;76.10;;;;;;5038187;28;20036;-62
2022/12/04 11:07:34;;;;;;;19.63;10.95;;;5.90;75.90;;;;;;5043765;28;20092;-61
2022/12/04 11:10:24;;;;;;;20.65;11.23;;;5.90;75.80;;;;;;5008126;28;1168603;-63
2022/12/04 11:13:14;;;;;;;17.55;9.32;;;5.90;75.70;;;;;;5041774;28;20021;-64
2022/12/04 11:15:50;;;;;;;21.92;10.93;;;5.90;75.70;;;;;;5042030;28;20419;-63
2022/12/04 11:18:20;;;;;;;19.77;9.98;;;5.90;75.60;;;;;;5038797;28;20109;-63
2022/12/04 11:20:59;;;;;;;16.83;10.27;;;5.90;75.60;;;;;;5032853;28;20030;-63
2022/12/04 11:23:28;;;;;;;19.70;11.02;;;5.90;75.40;;;;;;5044202;28;20024;-63
2022/12/04 11:25:56;;;;;;;23.33;12.07;;;5.90;75.40;;;;;;5038190;28;20046;-63
2022/12/04 11:28:28;;;;;;;20.73;11.15;;;5.90;75.40;;;;;;5040979;28;20040;-63
2022/12/04 11:30:57;;;;;;;20.55;10.95;;;6.00;75.70;;;;;;5033062;28;20072;-63
2022/12/04 11:33:33;;;;;;;19.00;10.32;;;5.90;75.60;;;;;;5018180;28;20116;-63
2022/12/04 11:36:06;;;;;;;25.30;14.00;;;6.00;75.80;;;;;;5036753;28;21012;-61
2022/12/04 11:38:34;;;;;;;19.40;11.43;;;6.00;75.80;;;;;;5039097;28;20514;-62
2022/12/04 11:41:02;;;;;;;18.33;10.63;;;6.00;75.80;;;;;;5041868;28;20104;-62
2022/12/04 11:43:31;;;;;;;19.30;10.82;;;6.00;75.60;;;;;;5045440;28;20022;-63
2022/12/04 11:45:58;;;;;;;18.42;10.73;;;6.10;75.50;;;;;;5040937;28;20360;-62
2022/12/04 11:48:25;;;;;;;20.33;11.43;;;6.10;75.50;;;;;;5034835;28;20040;-63
2022/12/04 11:51:15;;;;;;;21.70;11.82;;;6.10;75.40;;;;;;5044558;28;20052;-62
2022/12/04 11:53:46;;;;;;;22.80;12.50;;;6.10;75.30;;;;;;5041355;28;20029;-63
2022/12/04 11:56:30;;;;;;;22.13;10.98;;;6.10;75.40;;;;;;5050077;28;20045;-64
2022/12/04 11:58:59;;;;;;;17.70;10.18;;;6.10;75.40;;;;;;5014284;28;20049;-62
2022/12/04 12:02:00;;;;;;;18.77;10.85;;;6.10;75.40;;;;;;5044202;28;20021;-63
2022/12/04 12:04:38;;;;;;;19.00;10.55;;;6.10;75.20;;;;;;5039252;28;20318;-63
2022/12/04 12:07:34;;;;;;;27.13;12.13;;;6.10;75.00;;;;;;5041448;28;20021;-63
2022/12/04 12:10:21;;;;;;;21.88;11.13;;;6.10;75.20;;;;;;5036309;28;20049;-63
2022/12/04 12:12:59;;;;;;;21.70;11.30;;;6.10;75.10;;;;;;5040577;28;20017;-63
2022/12/04 12:15:50;;;;;;;21.63;11.73;;;6.10;75.00;;;;;;5041697;28;20025;-62
2022/12/04 12:18:19;;;;;;;22.23;10.90;;;6.10;75.10;;;;;;5039264;28;20112;-63
2022/12/04 12:20:52;;;;;;;20.45;10.90;;;6.10;75.20;;;;;;5034701;28;20032;-63
2022/12/04 12:23:26;;;;;;;18.98;10.77;;;6.00;75.00;;;;;;5020518;28;20030;-63
2022/12/04 12:26:05;;;;;;;29.00;12.43;;;6.00;75.30;;;;;;5042012;28;20044;-62
2022/12/04 12:28:39;;;;;;;19.48;10.38;;;6.00;75.50;;;;;;5038612;28;20427;-64
2022/12/04 12:31:11;;;;;;;;;;;6.10;75.60;;;;;;5023517;28;20044;-62
2022/12/04 12:33:52;;;;;;;17.98;9.93;;;6.10;75.50;;;;;;5047164;28;19912;-62
2022/12/04 12:36:21;;;;;;;19.25;10.48;;;6.10;75.40;;;;;;5037683;28;20591;-62
2022/12/04 12:38:57;;;;;;;18.48;9.40;;;6.20;75.40;;;;;;5042170;28;20033;-62
2022/12/04 12:41:43;;;;;;;21.88;10.32;;;6.20;75.40;;;;;;5028619;28;20087;-63
2022/12/04 12:44:35;;;;;;;16.05;9.57;;;6.20;75.20;;;;;;5035087;28;20065;-62
2022/12/04 12:47:08;;;;;;;18.83;9.93;;;6.20;75.00;;;;;;5004553;28;20030;-62
2022/12/04 12:50:07;;;;;;;19.05;10.38;;;6.20;75.00;;;;;;5032500;28;20067;-62
2022/12/04 12:52:49;;;;;;;21.30;10.38;;;6.20;75.10;;;;;;5023318;28;20044;-62
2022/12/04 12:55:21;;;;;;;19.15;9.98;;;6.20;75.10;;;;;;5038786;28;20052;-62
2022/12/04 12:57:58;;;;;;;19.17;9.82;;;6.10;75.30;;;;;;5036221;28;20029;-62
2022/12/04 13:00:25;;;;;;;15.57;8.88;;;6.30;75.60;;;;;;5040298;28;20047;-62
2022/12/04 13:03:16;;;;;;;16.60;8.65;;;6.20;75.60;;;;;;5042118;28;20018;-66
2022/12/04 13:05:45;;;;;;;16.73;9.10;;;6.20;75.40;;;;;;5040558;28;20109;-63
2022/12/04 13:08:35;;;;;;;15.70;9.43;;;6.20;75.40;;;;;;5046152;28;20029;-63
2022/12/04 13:11:01;;;;;;;15.57;8.95;;;6.20;75.50;;;;;;5042910;28;20080;-62
2022/12/04 13:13:28;;;;;;;17.33;9.57;;;6.20;75.40;;;;;;5048618;28;20045;-61
2022/12/04 13:16:09;;;;;;;17.38;9.93;;;6.30;75.50;;;;;;5049467;28;20021;-62
2022/12/04 13:18:43;;;;;;;18.42;9.82;;;6.30;75.40;;;;;;5039949;28;20372;-62